MST,Max TemperatureF,Mean TemperatureF,Min TemperatureF,Max Dew PointF,MeanDew PointF,Min DewpointF,Max Humidity, Mean Humidity, Min Humidity, Max Sea Level PressureIn, Mean Sea Level PressureIn, Min Sea Level PressureIn, Max VisibilityMiles, Mean VisibilityMiles, Min VisibilityMiles, Max Wind SpeedMPH, Mean Wind SpeedMPH, Max Gust SpeedMPH,PrecipitationIn, CloudCover, Events, WindDirDegrees
2013-11-1,53,42,28,34,28,21,81,61,35,30.05,29.93,29.75,10,10,10,31,18,39,0.00,2,,297
2013-11-2,53,38,24,30,26,19,93,63,41,30.06,29.87,29.54,10,10,10,15,5,17,0.00,1,,154
2013-11-3,51,40,28,37,26,19,93,60,30,29.76,29.60,29.49,10,10,10,22,9,31,0.00,1,,277
2013-11-4,37,26,15,21,15,9,80,59,36,30.10,29.96,29.78,10,10,10,29,19,36,0.00,3,,280
2013-11-5,41,28,14,21,15,9,93,68,38,30.14,30.08,30.01,10,10,10,16,6,20,0.00,1,,219
2013-11-6,42,28,14,23,15,9,93,66,33,30.25,30.10,30.00,10,10,10,18,5,22,0.00,0,,273
2013-11-7,46,32,17,27,20,12,86,62,34,30.27,30.10,29.69,10,10,10,12,6,,0.00,1,,162
2013-11-8,53,42,32,37,32,27,87,71,38,29.93,29.70,29.57,10,10,9,30,14,39,0.06,5,,275
2013-11-9,39,31,23,30,22,16,93,69,49,30.24,30.16,29.94,10,10,10,23,12,29,0.00,3,,277
2013-11-10,35,24,14,27,19,9,86,76,65,30.41,30.21,30.08,10,8,2,20,10,21,0.00,7,,30
2013-11-11,23,14,5,14,9,-2,100,79,63,30.59,30.53,30.41,10,10,4,9,5,,0.00,1,,125
2013-11-12,44,26,8,34,22,7,100,81,57,30.52,30.31,30.07,10,10,10,15,9,,0.00,0,,203
2013-11-13,57,42,28,37,32,25,93,72,41,30.07,30.00,29.93,10,10,5,23,9,41,0.01,2,,235
2013-11-14,50,38,26,30,27,21,93,67,43,29.94,29.84,29.69,10,10,10,20,13,26,0.00,0,,273
2013-11-15,50,37,24,28,24,19,93,66,37,29.68,29.48,29.33,10,10,10,17,9,20,0.00,1,,206
2013-11-16,39,32,26,34,29,23,100,82,60,29.40,29.31,29.27,10,8,0,13,4,16,0.04,6,,189
2013-11-17,33,25,17,30,24,12,100,84,65,29.94,29.73,29.40,10,10,0,23,10,30,0.01,5,,287
2013-11-18,48,32,17,28,22,10,100,70,40,29.95,29.90,29.76,10,10,10,14,7,16,0.00,0,,189
2013-11-19,55,37,17,34,25,12,86,74,36,29.76,29.59,29.51,10,10,10,23,6,31,0.00,0,,204
2013-11-20,17,9,1,12,5,-8,86,75,66,30.43,30.07,29.77,10,7,0,18,13,23,0.00,5,,338
2013-11-21,10,-2,-14,7,-6,-29,100,75,48,30.56,30.49,30.42,10,10,8,15,6,17,0.00,0,,199
2013-11-22,14,6,-2,9,1,-11,100,74,52,30.71,30.58,30.41,10,10,10,15,7,,0.00,4,,54
2013-11-23,24,10,-5,16,4,-13,93,78,62,30.71,30.49,30.15,10,10,10,10,5,,0.00,1,,206
2013-11-24,37,28,19,27,19,10,86,70,56,30.14,30.03,29.95,10,10,10,17,9,17,0.00,2,,242
2013-11-25,33,26,17,19,17,12,86,73,52,30.41,30.27,30.13,10,10,10,18,12,24,0.00,2,,300
2013-11-26,24,14,3,16,10,-8,100,75,59,30.49,30.34,30.06,10,10,10,9,5,,0.00,1,,99
2013-11-27,33,25,17,25,19,10,80,73,65,30.06,29.99,29.93,10,10,10,24,11,30,0.00,0,,261
2013-11-28,,,,,,,,,,,,,,,,,,,,,,
2013-11-29,,,,,,,,,,,,,,,,,,,,,,
2013-11-30,,,,,,,,,,,,,,,,,,,,,,